createdAt,value
2019-05-20T00:00:30.436Z,22.10
2019-05-20T00:01:30.423Z,22.10
2019-05-20T00:02:30.415Z,22.10
2019-05-20T00:03:30.406Z,21.10
2019-05-20T00:04:30.389Z,23.30
2019-05-20T00:05:30.407Z,20.70
2019-05-20T00:06:30.367Z,21.80
2019-05-20T00:07:30.362Z,22.10
2019-05-20T00:08:30.348Z,20.80
2019-05-20T00:09:30.337Z,22.30
2019-05-20T00:10:30.336Z,22.30
2019-05-20T00:11:30.315Z,20.40
2019-05-20T00:12:30.302Z,20.60
2019-05-20T00:13:30.294Z,22.20
2019-05-20T00:14:30.281Z,21.40
2019-05-20T00:15:30.272Z,20.10
2019-05-20T00:16:30.261Z,22.00
2019-05-20T00:17:30.250Z,21.00
2019-05-20T00:18:30.240Z,21.20
2019-05-20T00:19:30.228Z,24.40
2019-05-20T00:20:30.213Z,21.20
2019-05-20T00:21:30.203Z,23.30
2019-05-20T00:22:30.196Z,22.90
2019-05-20T00:23:30.182Z,23.00
2019-05-20T00:24:30.176Z,22.90
2019-05-20T00:25:30.161Z,22.70
2019-05-20T00:26:30.149Z,23.90
2019-05-20T00:27:30.137Z,24.00
2019-05-20T00:28:30.137Z,21.90
2019-05-20T00:29:30.116Z,24.60
2019-05-20T00:30:30.108Z,22.90
2019-05-20T00:31:30.097Z,23.50
2019-05-20T00:32:40.596Z,22.90
2019-05-20T00:33:31.082Z,22.20
2019-05-20T00:34:35.000Z,21.60
2019-05-20T00:35:31.052Z,22.70
2019-05-20T00:36:30.044Z,20.90
2019-05-20T00:37:30.039Z,21.70
2019-05-20T00:38:30.026Z,21.40
2019-05-20T00:39:30.012Z,21.10
2019-05-20T00:40:30.029Z,22.50
2019-05-20T00:41:29.985Z,21.90
2019-05-20T00:42:29.976Z,22.00
2019-05-20T00:43:29.982Z,21.80
2019-05-20T00:44:29.950Z,20.90
2019-05-20T00:45:29.946Z,21.20
2019-05-20T00:46:29.941Z,22.50
2019-05-20T00:47:29.918Z,22.30
2019-05-20T00:48:29.909Z,22.10
2019-05-20T00:49:29.896Z,22.80
2019-05-20T00:50:29.892Z,21.70
2019-05-20T00:51:29.880Z,23.20
2019-05-20T00:52:29.865Z,20.90
2019-05-20T00:53:29.853Z,22.60
2019-05-20T00:54:29.843Z,21.50
2019-05-20T00:55:29.836Z,21.90
2019-05-20T00:56:29.822Z,23.20
2019-05-20T00:57:29.835Z,23.40
2019-05-20T00:58:29.805Z,20.00
2019-05-20T00:59:29.793Z,24.80
2019-05-20T01:00:29.780Z,21.50
2019-05-20T01:01:29.770Z,21.50
2019-05-20T01:02:29.763Z,24.20
2019-05-20T01:03:29.753Z,24.10
2019-05-20T01:04:29.753Z,23.70
2019-05-20T01:05:29.724Z,23.30
2019-05-20T01:06:29.718Z,21.70
2019-05-20T01:07:29.701Z,23.60
2019-05-20T01:08:29.692Z,23.00
2019-05-20T01:09:29.680Z,24.60
2019-05-20T01:10:29.704Z,21.40
2019-05-20T01:11:29.663Z,25.20
2019-05-20T01:12:29.647Z,24.30
2019-05-20T01:13:29.634Z,25.10
2019-05-20T01:14:29.627Z,25.20
2019-05-20T01:15:29.617Z,24.80
2019-05-20T01:16:29.603Z,22.70
2019-05-20T01:17:29.591Z,23.70
2019-05-20T01:18:29.583Z,23.90
2019-05-20T01:19:29.566Z,21.30
2019-05-20T01:20:29.558Z,22.50
2019-05-20T01:21:29.547Z,23.50
2019-05-20T01:22:29.535Z,22.60
2019-05-20T01:23:29.530Z,21.70
2019-05-20T01:24:29.566Z,25.60
2019-05-20T01:25:29.510Z,24.20
2019-05-20T01:26:29.495Z,21.90
2019-05-20T01:27:29.517Z,24.50
2019-05-20T01:28:29.472Z,23.00
2019-05-20T01:29:29.457Z,21.20
2019-05-20T01:30:29.446Z,21.90
2019-05-20T01:31:29.446Z,24.30
2019-05-20T01:32:29.439Z,22.10
2019-05-20T01:33:29.421Z,21.80
2019-05-20T01:34:29.409Z,22.10
2019-05-20T01:35:29.402Z,24.10
2019-05-20T01:36:29.391Z,21.40
2019-05-20T01:37:29.374Z,25.30
2019-05-20T01:38:29.364Z,22.50
2019-05-20T01:39:29.474Z,21.80
2019-05-20T01:40:29.339Z,24.60
2019-05-20T01:41:29.329Z,23.80
2019-05-20T01:42:29.321Z,25.30
2019-05-20T01:43:29.308Z,25.80
2019-05-20T01:44:29.299Z,22.70
2019-05-20T01:45:29.324Z,23.60
2019-05-20T01:46:29.274Z,23.40
2019-05-20T01:47:29.267Z,22.10
2019-05-20T01:48:29.259Z,23.30
2019-05-20T01:49:29.250Z,22.00
2019-05-20T01:50:29.235Z,20.40
2019-05-20T01:51:29.236Z,20.60
2019-05-20T01:52:29.216Z,20.10
2019-05-20T01:53:29.207Z,24.80
2019-05-20T01:54:29.193Z,21.40
2019-05-20T01:55:29.175Z,22.20
2019-05-20T01:56:29.168Z,24.00
2019-05-20T01:57:29.160Z,23.30
2019-05-20T01:58:29.148Z,21.50
2019-05-20T01:59:29.135Z,21.00
2019-05-20T02:00:29.124Z,22.90
2019-05-20T02:01:29.112Z,21.90
2019-05-20T02:02:29.104Z,22.50
2019-05-20T02:03:32.134Z,26.10
2019-05-20T02:04:29.082Z,25.70
2019-05-20T02:05:29.074Z,22.60
2019-05-20T02:06:29.056Z,24.50
2019-05-20T02:07:29.048Z,21.60
2019-05-20T02:08:29.040Z,22.70
2019-05-20T02:09:29.026Z,23.00
2019-05-20T02:10:29.013Z,23.80
2019-05-20T02:11:29.006Z,24.50
2019-05-20T02:12:28.995Z,24.60
2019-05-20T02:13:28.982Z,21.50
2019-05-20T02:14:28.976Z,21.60
2019-05-20T02:15:28.969Z,27.00
2019-05-20T02:16:28.949Z,23.80
2019-05-20T02:17:28.945Z,23.30
2019-05-20T02:18:28.943Z,22.70
2019-05-20T02:19:28.924Z,22.40
2019-05-20T02:20:28.910Z,24.60
2019-05-20T02:21:28.903Z,24.30
2019-05-20T02:22:28.886Z,23.60
2019-05-20T02:23:28.872Z,23.40
2019-05-20T02:24:28.860Z,25.60
2019-05-20T02:25:28.863Z,27.90
2019-05-20T02:26:28.841Z,26.60
2019-05-20T02:27:28.828Z,26.60
2019-05-20T02:28:28.824Z,27.20
2019-05-20T02:29:28.833Z,26.60
2019-05-20T02:30:28.803Z,26.60
2019-05-20T02:31:28.794Z,22.60
2019-05-20T02:32:28.796Z,25.30
2019-05-20T02:33:28.768Z,23.60
2019-05-20T02:34:28.755Z,23.50
2019-05-20T02:35:28.744Z,23.40
2019-05-20T02:36:28.740Z,23.30
2019-05-20T02:37:28.722Z,22.30
2019-05-20T02:38:28.712Z,25.30
2019-05-20T02:39:28.703Z,26.60
2019-05-20T02:40:28.688Z,23.40
2019-05-20T02:41:28.679Z,22.60
2019-05-20T02:42:28.667Z,22.70
2019-05-20T02:43:28.658Z,25.10
2019-05-20T02:44:28.648Z,24.60
2019-05-20T02:45:28.635Z,23.10
2019-05-20T02:46:28.627Z,25.10
2019-05-20T02:47:28.624Z,22.60
2019-05-20T02:48:28.602Z,24.30
2019-05-20T02:49:28.589Z,22.40
2019-05-20T02:50:28.581Z,25.60
2019-05-20T02:51:28.573Z,24.40
2019-05-20T02:52:28.559Z,22.40
2019-05-20T02:53:28.542Z,24.90
2019-05-20T02:54:28.534Z,25.20
2019-05-20T02:55:28.529Z,23.30
2019-05-20T02:56:28.522Z,24.50
2019-05-20T02:57:28.504Z,24.80
2019-05-20T02:58:28.490Z,22.40
2019-05-20T02:59:28.477Z,26.40
2019-05-20T03:00:28.470Z,22.40
2019-05-20T03:01:28.458Z,25.10
2019-05-20T03:02:28.449Z,23.70
2019-05-20T03:03:28.438Z,23.50
2019-05-20T03:04:28.428Z,23.10
2019-05-20T03:05:28.419Z,23.50
2019-05-20T03:06:28.405Z,23.60
2019-05-20T03:07:28.397Z,23.00
2019-05-20T03:08:28.388Z,25.60
2019-05-20T03:09:28.371Z,22.20
2019-05-20T03:10:28.372Z,23.90
2019-05-20T03:11:28.353Z,24.50
2019-05-20T03:12:28.346Z,23.00
2019-05-20T03:13:28.333Z,27.10
2019-05-20T03:14:28.320Z,24.30
2019-05-20T03:15:28.310Z,19.80
2019-05-20T03:16:28.298Z,24.80
2019-05-20T03:17:28.294Z,26.00
2019-05-20T03:18:28.307Z,23.50
2019-05-20T03:19:28.269Z,24.00
2019-05-20T03:20:28.253Z,24.20
2019-05-20T03:21:28.246Z,25.60
2019-05-20T03:22:28.228Z,23.10
2019-05-20T03:23:28.222Z,25.40
2019-05-20T03:24:28.209Z,25.00
2019-05-20T03:25:28.200Z,22.20
2019-05-20T03:26:28.192Z,22.00
2019-05-20T03:27:28.178Z,22.90
2019-05-20T03:28:28.164Z,25.90
2019-05-20T03:29:28.156Z,23.60
2019-05-20T03:30:28.144Z,23.30
2019-05-20T03:31:28.140Z,23.80
2019-05-20T03:32:28.125Z,23.50
2019-05-20T03:33:28.127Z,23.70
2019-05-20T03:34:45.715Z,24.30
2019-05-20T03:35:29.113Z,23.20
2019-05-20T03:36:28.079Z,22.50
2019-05-20T03:37:28.068Z,23.60
2019-05-20T03:38:28.054Z,24.10
2019-05-20T03:39:28.052Z,21.70
2019-05-20T03:40:28.042Z,23.20
2019-05-20T03:41:28.030Z,22.10
2019-05-20T03:42:28.021Z,23.40
2019-05-20T03:43:28.004Z,24.80
2019-05-20T03:44:27.988Z,23.00
2019-05-20T03:45:27.975Z,21.90
2019-05-20T03:46:27.968Z,21.10
2019-05-20T03:47:27.965Z,22.40
2019-05-20T03:48:27.949Z,21.80
2019-05-20T03:49:27.944Z,23.40
2019-05-20T03:50:27.928Z,24.70
2019-05-20T03:51:27.917Z,22.00
2019-05-20T03:52:27.903Z,23.60
2019-05-20T03:53:27.921Z,23.60
2019-05-20T03:54:27.886Z,24.50
2019-05-20T03:55:27.874Z,23.60
2019-05-20T03:56:27.861Z,21.20
2019-05-20T03:57:27.852Z,21.10
2019-05-20T03:58:27.836Z,23.10
2019-05-20T03:59:27.850Z,21.60
2019-05-20T04:00:27.825Z,21.80
2019-05-20T04:01:27.809Z,22.90
2019-05-20T04:02:27.801Z,22.10
2019-05-20T04:03:27.784Z,23.70
2019-05-20T04:04:27.775Z,23.40
2019-05-20T04:05:27.766Z,22.20
2019-05-20T04:06:27.758Z,22.80
2019-05-20T04:07:27.739Z,23.20
2019-05-20T04:08:27.729Z,23.20
2019-05-20T04:09:27.719Z,20.70
2019-05-20T04:10:27.709Z,22.70
2019-05-20T04:11:27.704Z,24.60
2019-05-20T04:12:27.684Z,21.60
2019-05-20T04:13:27.685Z,23.20
2019-05-20T04:14:27.669Z,22.70
2019-05-20T04:15:27.653Z,21.30
2019-05-20T04:16:27.648Z,23.00
2019-05-20T04:17:27.641Z,22.20
2019-05-20T04:18:27.622Z,22.50
2019-05-20T04:19:27.613Z,22.20
2019-05-20T04:20:27.599Z,23.40
2019-05-20T04:21:27.602Z,23.20
2019-05-20T04:22:27.587Z,22.70
2019-05-20T04:23:27.567Z,20.90
2019-05-20T04:24:27.556Z,21.20
2019-05-20T04:25:27.545Z,22.90
2019-05-20T04:26:27.537Z,23.40
2019-05-20T04:27:27.521Z,22.70
2019-05-20T04:28:27.514Z,21.90
2019-05-20T04:29:27.511Z,22.70
2019-05-20T04:30:27.489Z,22.30
2019-05-20T04:31:27.478Z,22.10
2019-05-20T04:32:27.468Z,22.10
2019-05-20T04:33:27.456Z,20.00
2019-05-20T04:34:27.446Z,20.30
2019-05-20T04:35:27.440Z,23.10
2019-05-20T04:36:27.429Z,21.00
2019-05-20T04:37:27.415Z,20.60
2019-05-20T04:38:27.402Z,22.30
2019-05-20T04:39:27.394Z,22.50
2019-05-20T04:40:27.377Z,21.30
2019-05-20T04:41:27.379Z,21.10
2019-05-20T04:42:27.361Z,20.90
2019-05-20T04:43:27.344Z,21.30
2019-05-20T04:44:27.337Z,21.50
2019-05-20T04:45:27.342Z,22.50
2019-05-20T04:46:27.313Z,19.40
2019-05-20T04:47:27.311Z,21.00
2019-05-20T04:48:27.296Z,20.80
2019-05-20T04:49:27.285Z,20.90
2019-05-20T04:50:27.270Z,18.60
2019-05-20T04:51:27.273Z,19.40
2019-05-20T04:52:27.264Z,20.00
2019-05-20T04:53:27.239Z,18.70
2019-05-20T04:54:27.234Z,20.10
2019-05-20T04:55:27.219Z,22.50
2019-05-20T04:56:29.322Z,19.50
2019-05-20T04:57:27.195Z,21.50
2019-05-20T04:58:27.184Z,20.10
2019-05-20T04:59:27.196Z,21.90
2019-05-20T05:00:27.171Z,21.20
2019-05-20T05:01:27.150Z,19.90
2019-05-20T05:02:27.138Z,19.20
2019-05-20T05:03:27.129Z,19.70
2019-05-20T05:04:27.123Z,19.00
2019-05-20T05:05:37.068Z,20.00
2019-05-20T05:06:28.101Z,19.00
2019-05-20T05:07:27.088Z,19.90
2019-05-20T05:08:27.079Z,18.50
2019-05-20T05:09:27.060Z,20.40
2019-05-20T05:10:27.053Z,18.40
2019-05-20T05:11:27.043Z,20.70
2019-05-20T05:12:27.038Z,18.70
2019-05-20T05:13:27.027Z,22.00
2019-05-20T05:14:27.102Z,19.80
2019-05-20T05:15:27.163Z,19.60
2019-05-20T05:16:27.069Z,19.60
2019-05-20T05:17:27.028Z,18.60
2019-05-20T05:18:27.131Z,18.50
2019-05-20T05:19:27.045Z,17.50
2019-05-20T05:20:26.942Z,18.30
2019-05-20T05:21:26.936Z,17.70
2019-05-20T05:22:26.921Z,17.60
2019-05-20T05:23:26.913Z,19.70
2019-05-20T05:24:26.898Z,18.30
2019-05-20T05:25:26.890Z,16.80
2019-05-20T05:26:26.879Z,16.60
2019-05-20T05:27:26.865Z,17.50
2019-05-20T05:28:26.859Z,17.50
2019-05-20T05:29:26.848Z,18.70
2019-05-20T05:30:26.838Z,18.00
2019-05-20T05:31:26.820Z,16.20
2019-05-20T05:32:26.817Z,17.00
2019-05-20T05:33:26.805Z,18.40
2019-05-20T05:34:26.794Z,16.80
2019-05-20T05:35:26.782Z,17.90
2019-05-20T05:36:26.770Z,17.30
2019-05-20T05:37:26.766Z,17.80
2019-05-20T05:38:26.745Z,18.90
2019-05-20T05:39:26.758Z,16.20
2019-05-20T05:40:26.724Z,16.20
2019-05-20T05:41:26.718Z,16.00
2019-05-20T05:42:26.704Z,17.30
2019-05-20T05:43:26.701Z,15.10
2019-05-20T05:44:26.691Z,16.20
2019-05-20T05:45:29.160Z,16.80
2019-05-20T05:46:26.690Z,16.70
2019-05-20T05:47:26.658Z,14.60
2019-05-20T05:48:26.643Z,14.50
2019-05-20T05:49:26.641Z,14.70
2019-05-20T05:50:26.612Z,17.10
2019-05-20T05:51:26.609Z,16.50
2019-05-20T05:52:26.598Z,17.50
2019-05-20T05:53:26.581Z,17.40
2019-05-20T05:54:26.578Z,14.80
2019-05-20T05:55:26.563Z,15.70
2019-05-20T05:56:26.548Z,15.20
2019-05-20T05:57:26.541Z,16.00
2019-05-20T05:58:26.530Z,14.00
2019-05-20T05:59:26.516Z,14.70
2019-05-20T06:00:26.795Z,14.60
2019-05-20T06:01:26.536Z,15.70
2019-05-20T06:02:26.496Z,14.80
2019-05-20T06:03:26.489Z,13.70
2019-05-20T06:04:26.467Z,14.20
2019-05-20T06:05:26.453Z,14.00
2019-05-20T06:06:26.439Z,14.70
2019-05-20T06:07:26.425Z,14.50
2019-05-20T06:08:26.418Z,13.90
2019-05-20T06:09:26.404Z,12.50
2019-05-20T06:10:26.409Z,13.70
2019-05-20T06:11:26.383Z,13.80
2019-05-20T06:12:26.379Z,13.00
2019-05-20T06:13:26.361Z,14.80
2019-05-20T06:14:26.352Z,12.70
2019-05-20T06:15:26.341Z,15.10
2019-05-20T06:16:35.895Z,12.90
2019-05-20T06:17:27.328Z,11.90
2019-05-20T06:18:26.331Z,12.30
2019-05-20T06:19:26.318Z,11.40
2019-05-20T06:20:26.287Z,12.30
2019-05-20T06:21:26.278Z,12.10
2019-05-20T06:22:26.268Z,12.20
2019-05-20T06:23:26.255Z,11.20
2019-05-20T06:24:26.242Z,10.70
2019-05-20T06:25:26.233Z,10.90
2019-05-20T06:26:26.223Z,11.40
2019-05-20T06:27:26.210Z,11.50
2019-05-20T06:28:26.209Z,11.60
2019-05-20T06:29:26.198Z,11.70
2019-05-20T06:30:26.178Z,10.80
2019-05-20T06:31:26.168Z,11.40
2019-05-20T06:32:26.170Z,10.10
2019-05-20T06:33:26.147Z,10.90
2019-05-20T06:34:26.137Z,10.50
2019-05-20T06:35:26.129Z,10.30
2019-05-20T06:36:27.299Z,9.80
2019-05-20T06:37:26.102Z,11.40
2019-05-20T06:38:26.091Z,10.90
2019-05-20T06:39:26.084Z,12.10
2019-05-20T06:40:26.152Z,12.00
2019-05-20T06:41:26.057Z,9.40
2019-05-20T06:42:26.069Z,11.10
2019-05-20T06:43:26.062Z,9.00
2019-05-20T06:44:26.029Z,10.50
2019-05-20T06:45:26.016Z,10.20
2019-05-20T06:46:26.006Z,9.50
2019-05-20T06:47:26.028Z,9.40
2019-05-20T06:48:25.982Z,11.60
2019-05-20T06:49:25.973Z,10.10
2019-05-20T06:50:29.494Z,9.60
2019-05-20T06:51:25.951Z,9.40
2019-05-20T06:52:35.480Z,10.70
2019-05-20T06:53:26.968Z,9.60
2019-05-20T06:54:25.916Z,10.70
2019-05-20T06:55:25.909Z,11.50
2019-05-20T06:56:25.901Z,11.20
2019-05-20T06:57:25.937Z,9.40
2019-05-20T06:58:25.963Z,9.00
2019-05-20T06:59:25.861Z,9.80
2019-05-20T07:00:25.885Z,9.30
2019-05-20T07:01:25.857Z,9.60
2019-05-20T07:02:25.893Z,9.00
2019-05-20T07:03:25.848Z,10.20
2019-05-20T07:04:25.813Z,9.60
2019-05-20T07:05:25.795Z,9.40
2019-05-20T07:06:25.789Z,8.80
2019-05-20T07:07:25.777Z,7.90
2019-05-20T07:08:25.841Z,7.90
2019-05-20T07:09:25.764Z,9.30
2019-05-20T07:10:25.751Z,8.40
2019-05-20T07:11:25.738Z,9.60
2019-05-20T07:12:40.203Z,7.50
2019-05-20T07:13:26.709Z,7.60
2019-05-20T07:14:25.705Z,7.80
2019-05-20T07:15:25.690Z,10.50
2019-05-20T07:16:25.684Z,9.40
2019-05-20T07:17:25.670Z,8.30
2019-05-20T07:18:27.553Z,7.20
2019-05-20T07:19:25.705Z,9.00
2019-05-20T07:20:25.704Z,8.90
2019-05-20T07:21:25.663Z,9.10
2019-05-20T07:22:25.620Z,8.80
2019-05-20T07:23:25.634Z,8.40
2019-05-20T07:24:25.600Z,8.90
2019-05-20T07:25:25.636Z,7.50
2019-05-20T07:26:25.570Z,7.60
2019-05-20T07:27:25.562Z,7.30
2019-05-20T07:28:25.547Z,9.00
2019-05-20T07:29:25.591Z,7.10
2019-05-20T07:30:25.534Z,8.10
2019-05-20T07:31:25.517Z,6.90
2019-05-20T07:32:25.505Z,7.50
2019-05-20T07:33:25.496Z,7.50
2019-05-20T07:34:25.645Z,7.10
2019-05-20T07:35:30.652Z,9.30
2019-05-20T07:36:26.494Z,9.60
2019-05-20T07:37:25.505Z,8.10
2019-05-20T07:38:25.440Z,7.50
2019-05-20T07:39:25.461Z,7.40
2019-05-20T07:40:25.427Z,7.20
2019-05-20T07:41:25.414Z,7.10
2019-05-20T07:42:25.403Z,6.90
2019-05-20T07:43:25.400Z,6.80
2019-05-20T07:44:25.398Z,6.70
2019-05-20T07:45:25.377Z,7.00
2019-05-20T07:46:25.364Z,6.70
2019-05-20T07:47:25.366Z,6.70
2019-05-20T07:48:25.368Z,7.30
2019-05-20T07:49:25.921Z,7.90
2019-05-20T07:50:25.318Z,7.30
2019-05-20T07:51:25.311Z,7.40
2019-05-20T07:52:25.293Z,7.00
2019-05-20T07:53:25.281Z,6.70
2019-05-20T07:54:25.275Z,6.70
2019-05-20T07:55:25.269Z,7.70
2019-05-20T07:56:25.266Z,7.50
2019-05-20T07:57:25.379Z,6.50
2019-05-20T07:58:25.234Z,6.60
2019-05-20T07:59:25.218Z,8.10
2019-05-20T08:00:25.209Z,6.70
2019-05-20T08:01:25.196Z,6.80
2019-05-20T08:02:25.198Z,6.20
2019-05-20T08:03:25.186Z,6.90
2019-05-20T08:04:25.234Z,6.30
2019-05-20T08:05:25.155Z,7.30
2019-05-20T08:06:25.225Z,6.10
2019-05-20T08:07:30.176Z,6.10
2019-05-20T08:08:26.145Z,7.70
2019-05-20T08:09:25.204Z,6.00
2019-05-20T08:10:25.102Z,6.60
2019-05-20T08:11:25.091Z,7.50
2019-05-20T08:12:25.081Z,6.60
2019-05-20T08:13:25.079Z,6.80
2019-05-20T08:14:25.062Z,5.30
2019-05-20T08:15:25.059Z,5.10
2019-05-20T08:16:25.045Z,5.30
2019-05-20T08:17:25.033Z,5.20
2019-05-20T08:18:25.025Z,5.90
2019-05-20T08:19:25.017Z,6.00
2019-05-20T08:20:25.007Z,5.20
2019-05-20T08:21:24.998Z,7.50
2019-05-20T08:22:24.985Z,7.40
2019-05-20T08:23:24.978Z,6.00
2019-05-20T08:24:24.968Z,5.70
2019-05-20T08:25:24.963Z,5.30
2019-05-20T08:26:24.970Z,5.30
2019-05-20T08:27:24.944Z,5.40
2019-05-20T08:28:24.925Z,5.80
2019-05-20T08:29:24.917Z,7.40
2019-05-20T08:30:24.909Z,5.30
2019-05-20T08:31:24.912Z,5.90
2019-05-20T08:32:25.069Z,6.70
2019-05-20T08:33:24.876Z,5.70
2019-05-20T08:34:24.864Z,6.90
2019-05-20T08:35:24.857Z,6.50
2019-05-20T08:36:24.862Z,5.20
2019-05-20T08:37:24.834Z,5.10
2019-05-20T08:38:24.825Z,5.00
2019-05-20T08:39:24.812Z,7.00
2019-05-20T08:40:24.815Z,5.60
2019-05-20T08:41:24.817Z,5.20
2019-05-20T08:42:24.783Z,6.00
2019-05-20T08:43:24.773Z,5.30
2019-05-20T08:44:24.762Z,5.70
2019-05-20T08:45:24.752Z,4.80
2019-05-20T08:46:24.763Z,4.70
2019-05-20T08:47:24.734Z,6.30
2019-05-20T08:48:24.732Z,7.10
2019-05-20T08:49:24.715Z,5.20
2019-05-20T08:50:24.703Z,6.50
2019-05-20T08:51:24.698Z,5.90
2019-05-20T08:52:24.686Z,4.40
2019-05-20T08:53:24.682Z,5.50
2019-05-20T08:54:24.700Z,4.70
2019-05-20T08:55:24.671Z,4.60
2019-05-20T08:56:24.650Z,5.30
2019-05-20T08:57:24.636Z,5.20
2019-05-20T08:58:24.688Z,5.00
2019-05-20T08:59:24.617Z,6.90
2019-05-20T09:00:25.093Z,5.30
2019-05-20T09:01:24.606Z,4.70
2019-05-20T09:02:24.624Z,5.10
2019-05-20T09:03:24.583Z,4.70
2019-05-20T09:04:24.575Z,5.40
2019-05-20T09:05:27.837Z,4.60
2019-05-20T09:06:24.555Z,4.40
2019-05-20T09:07:24.552Z,7.00
2019-05-20T09:08:24.551Z,5.20
2019-05-20T09:09:24.646Z,5.20
2019-05-20T09:10:24.517Z,7.90
2019-05-20T09:11:24.505Z,5.50
2019-05-20T09:12:24.602Z,4.80
2019-05-20T09:13:24.490Z,4.80
2019-05-20T09:14:24.486Z,4.90
2019-05-20T09:15:24.469Z,4.00
2019-05-20T09:16:24.462Z,4.50
2019-05-20T09:17:24.458Z,4.90
2019-05-20T09:18:24.441Z,4.40
2019-05-20T09:19:24.438Z,4.60
2019-05-20T09:20:24.653Z,4.70
2019-05-20T09:21:24.413Z,6.30
2019-05-20T09:22:24.402Z,5.50
2019-05-20T09:23:24.421Z,6.20
2019-05-20T09:24:24.391Z,5.70
2019-05-20T09:25:24.377Z,4.60
2019-05-20T09:26:24.375Z,5.30
2019-05-20T09:27:24.397Z,4.50
2019-05-20T09:28:24.348Z,4.70
2019-05-20T09:29:24.339Z,5.00
2019-05-20T09:30:24.329Z,4.80
2019-05-20T09:31:24.318Z,4.70
2019-05-20T09:32:24.308Z,5.30
2019-05-20T09:33:24.313Z,4.50
2019-05-20T09:34:24.343Z,4.70
2019-05-20T09:35:24.280Z,4.50
2019-05-20T09:36:26.048Z,4.90
2019-05-20T09:37:24.260Z,4.40
2019-05-20T09:38:24.255Z,4.40
2019-05-20T09:39:24.240Z,6.10
2019-05-20T09:40:24.389Z,5.10
2019-05-20T09:41:24.224Z,5.20
2019-05-20T09:42:24.210Z,4.90
2019-05-20T09:43:24.200Z,5.20
2019-05-20T09:44:24.192Z,4.80
2019-05-20T09:45:24.190Z,6.70
2019-05-20T09:46:24.199Z,4.50
2019-05-20T09:47:24.164Z,4.10
2019-05-20T09:48:25.250Z,4.40
2019-05-20T09:49:24.213Z,3.90
2019-05-20T09:50:24.133Z,5.60
2019-05-20T09:51:24.128Z,6.50
2019-05-20T09:52:24.163Z,4.40
2019-05-20T09:53:24.125Z,5.10
2019-05-20T09:54:24.095Z,4.90
2019-05-20T09:55:24.113Z,6.00
2019-05-20T09:56:24.073Z,4.80
2019-05-20T09:57:24.063Z,5.20
2019-05-20T09:58:24.056Z,4.40
2019-05-20T09:59:24.067Z,4.30
2019-05-20T10:00:24.034Z,4.70
2019-05-20T10:01:24.029Z,4.40
2019-05-20T10:02:33.735Z,5.90
2019-05-20T10:03:25.004Z,5.40
2019-05-20T10:04:24.003Z,4.60
2019-05-20T10:05:23.991Z,4.80
2019-05-20T10:06:23.982Z,5.80
2019-05-20T10:07:23.977Z,4.30
2019-05-20T10:08:37.418Z,4.40
2019-05-20T10:09:24.949Z,5.40
2019-05-20T10:10:23.945Z,5.10
2019-05-20T10:11:23.931Z,4.70
2019-05-20T10:12:23.927Z,5.40
2019-05-20T10:13:23.913Z,4.20
2019-05-20T10:14:23.906Z,5.50
2019-05-20T10:15:23.900Z,4.40
2019-05-20T10:16:23.888Z,4.50
2019-05-20T10:17:23.880Z,4.60
2019-05-20T10:18:36.716Z,5.00
2019-05-20T10:19:24.853Z,4.10
2019-05-20T10:20:23.856Z,4.90
2019-05-20T10:21:23.833Z,5.00
2019-05-20T10:22:23.827Z,5.70
2019-05-20T10:23:23.815Z,4.40
2019-05-20T10:24:23.805Z,5.30
2019-05-20T10:25:23.793Z,4.50
2019-05-20T10:26:23.789Z,4.90
2019-05-20T10:27:23.774Z,4.70
2019-05-20T10:28:23.763Z,5.70
2019-05-20T10:29:23.755Z,6.60
2019-05-20T10:30:23.748Z,5.80
2019-05-20T10:31:23.755Z,5.30
2019-05-20T10:32:23.727Z,4.80
2019-05-20T10:33:23.714Z,4.50
2019-05-20T10:34:23.706Z,4.50
2019-05-20T10:35:23.693Z,5.00
2019-05-20T10:36:23.702Z,4.30
2019-05-20T10:37:23.673Z,4.30
2019-05-20T10:38:23.695Z,6.60
2019-05-20T10:39:23.655Z,4.90
2019-05-20T10:40:23.642Z,4.50
2019-05-20T10:41:23.687Z,4.10
2019-05-20T10:42:23.625Z,5.10
2019-05-20T10:43:23.610Z,3.90
2019-05-20T10:44:23.603Z,4.50
2019-05-20T10:45:23.615Z,4.40
2019-05-20T10:46:23.596Z,4.80
2019-05-20T10:47:23.568Z,4.50
2019-05-20T10:48:23.560Z,5.10
2019-05-20T10:49:23.551Z,4.20
2019-05-20T10:50:23.542Z,4.60
2019-05-20T10:51:23.531Z,5.00
2019-05-20T10:52:23.526Z,4.80
2019-05-20T10:53:23.510Z,4.50
2019-05-20T10:54:23.502Z,7.10
2019-05-20T10:55:23.572Z,5.50
2019-05-20T10:56:23.480Z,4.70
2019-05-20T10:57:23.469Z,4.90
2019-05-20T10:58:23.462Z,4.80
2019-05-20T10:59:23.447Z,6.50
2019-05-20T11:00:23.445Z,5.50
2019-05-20T11:01:23.435Z,5.20
2019-05-20T11:02:23.419Z,4.70
2019-05-20T11:03:23.410Z,5.70
2019-05-20T11:04:23.403Z,5.20
2019-05-20T11:05:23.424Z,5.00
2019-05-20T11:06:23.376Z,5.60
2019-05-20T11:07:23.366Z,6.00
2019-05-20T11:08:23.353Z,6.40
2019-05-20T11:09:23.344Z,7.30
2019-05-20T11:10:23.332Z,5.10
2019-05-20T11:11:23.321Z,4.70
2019-05-20T11:12:23.353Z,4.70
2019-05-20T11:13:23.305Z,4.50
2019-05-20T11:14:23.336Z,4.20
2019-05-20T11:15:23.281Z,6.60
2019-05-20T11:16:23.269Z,5.40
2019-05-20T11:17:23.258Z,6.20
2019-05-20T11:18:23.254Z,6.50
2019-05-20T11:19:23.238Z,5.70
2019-05-20T11:20:23.226Z,4.90
2019-05-20T11:21:23.217Z,4.30
2019-05-20T11:22:23.205Z,5.80
2019-05-20T11:23:23.196Z,5.70
2019-05-20T11:24:23.182Z,4.40
2019-05-20T11:25:23.184Z,7.10
2019-05-20T11:26:23.163Z,7.30
2019-05-20T11:27:23.153Z,4.20
2019-05-20T11:28:23.139Z,5.30
2019-05-20T11:29:23.131Z,5.60
2019-05-20T11:30:23.120Z,7.00
2019-05-20T11:31:23.113Z,6.10
2019-05-20T11:32:23.126Z,5.90
2019-05-20T11:33:23.098Z,6.80
2019-05-20T11:34:23.084Z,5.40
2019-05-20T11:35:23.067Z,4.60
2019-05-20T11:36:23.057Z,5.30
2019-05-20T11:37:23.048Z,5.80
2019-05-20T11:38:23.031Z,6.80
2019-05-20T11:39:33.402Z,4.50
2019-05-20T11:40:24.012Z,7.10
2019-05-20T11:41:51.310Z,5.80
2019-05-20T11:42:23.992Z,5.70
2019-05-20T11:43:22.981Z,4.90
2019-05-20T11:44:22.967Z,5.00
2019-05-20T11:45:22.956Z,4.60
2019-05-20T11:46:22.946Z,4.60
2019-05-20T11:47:22.945Z,6.00
2019-05-20T11:48:22.925Z,4.80
2019-05-20T11:49:22.916Z,5.50
2019-05-20T11:50:22.905Z,4.50
2019-05-20T11:51:22.893Z,7.50
2019-05-20T11:52:22.884Z,6.50
2019-05-20T11:53:22.871Z,6.30
2019-05-20T11:54:22.866Z,5.80
2019-05-20T11:55:22.864Z,6.90
2019-05-20T11:56:22.845Z,7.40
2019-05-20T11:57:22.844Z,5.00
2019-05-20T11:58:22.819Z,6.30
2019-05-20T11:59:22.809Z,6.10
2019-05-20T12:00:22.797Z,7.10
2019-05-20T12:01:22.785Z,7.50
2019-05-20T12:02:22.784Z,6.50
2019-05-20T12:03:22.770Z,6.90
2019-05-20T12:04:22.754Z,6.00
2019-05-20T12:05:22.820Z,5.00
2019-05-20T12:06:22.734Z,7.90
2019-05-20T12:07:22.723Z,5.80
2019-05-20T12:08:22.711Z,5.10
2019-05-20T12:09:22.703Z,5.90
2019-05-20T12:10:22.689Z,7.40
2019-05-20T12:11:22.681Z,5.80
2019-05-20T12:12:22.670Z,5.90
2019-05-20T12:13:22.659Z,6.70
2019-05-20T12:14:22.646Z,5.80
2019-05-20T12:15:22.639Z,6.10
2019-05-20T12:16:22.625Z,7.00
2019-05-20T12:17:22.630Z,7.30
2019-05-20T12:18:22.606Z,8.30
2019-05-20T12:19:22.601Z,5.40
2019-05-20T12:20:22.580Z,6.80
2019-05-20T12:21:22.568Z,6.00
2019-05-20T12:22:22.561Z,5.90
2019-05-20T12:23:22.547Z,5.90
2019-05-20T12:24:22.536Z,6.80
2019-05-20T12:25:22.526Z,6.90
2019-05-20T12:26:22.931Z,6.00
2019-05-20T12:27:22.502Z,6.60
2019-05-20T12:28:22.495Z,7.40
2019-05-20T12:29:22.483Z,7.30
2019-05-20T12:30:22.480Z,6.30
2019-05-20T12:31:22.461Z,6.80
2019-05-20T12:32:22.456Z,5.80
2019-05-20T12:33:22.441Z,5.80
2019-05-20T12:34:22.447Z,5.50
2019-05-20T12:35:22.421Z,5.10
2019-05-20T12:36:22.405Z,6.10
2019-05-20T12:37:22.399Z,7.20
2019-05-20T12:38:22.387Z,7.30
2019-05-20T12:39:22.379Z,7.40
2019-05-20T12:40:22.363Z,7.00
2019-05-20T12:41:22.379Z,7.10
2019-05-20T12:42:22.341Z,6.10
2019-05-20T12:43:22.338Z,6.70
2019-05-20T12:44:22.319Z,9.00
2019-05-20T12:45:22.311Z,7.00
2019-05-20T12:46:22.300Z,6.10
2019-05-20T12:47:22.290Z,5.70
2019-05-20T12:48:22.317Z,6.70
2019-05-20T12:49:22.395Z,6.10
2019-05-20T12:50:22.256Z,9.10
2019-05-20T12:51:22.250Z,6.80
2019-05-20T12:52:22.238Z,7.60
2019-05-20T12:53:22.232Z,5.90
2019-05-20T12:54:22.217Z,8.10
2019-05-20T12:55:22.205Z,7.10
2019-05-20T12:56:22.208Z,7.20
2019-05-20T12:57:22.195Z,6.50
2019-05-20T12:58:22.172Z,8.90
2019-05-20T12:59:22.161Z,6.90
2019-05-20T13:00:22.190Z,6.80
2019-05-20T13:01:22.144Z,5.80
2019-05-20T13:02:22.132Z,7.20
2019-05-20T13:03:22.491Z,6.70
2019-05-20T13:04:22.108Z,7.10